sensor_id;sensor_type;location;lat;lon;timestamp;pressure;altitude;pressure_sealevel;temperature;humidity
21817;BME280;13247;47.504;7.382;2023-04-08T00:00:11;97606.13;;;7.13;100.00
21817;BME280;13247;47.504;7.382;2023-04-08T00:02:56;97610.53;;;7.09;100.00
21817;BME280;13247;47.504;7.382;2023-04-08T00:05:40;97608.75;;;7.11;100.00
21817;BME280;13247;47.504;7.382;2023-04-08T00:08:25;97593.94;;;7.15;100.00
21817;BME280;13247;47.504;7.382;2023-04-08T00:11:09;97591.25;;;7.20;100.00
21817;BME280;13247;47.504;7.382;2023-04-08T00:13:54;97594.66;;;7.26;100.00
21817;BME280;13247;47.504;7.382;2023-04-08T00:16:39;97594.63;;;7.28;100.00
21817;BME280;13247;47.504;7.382;2023-04-08T00:19:24;97596.28;;;7.32;100.00
21817;BME280;13247;47.504;7.382;2023-04-08T00:22:10;97596.09;;;7.45;100.00
21817;BME280;13247;47.504;7.382;2023-04-08T00:24:56;97590.19;;;7.34;100.00
21817;BME280;13247;47.504;7.382;2023-04-08T00:27:40;97585.88;;;7.29;100.00
21817;BME280;13247;47.504;7.382;2023-04-08T00:30:25;97586.78;;;7.28;100.00
21817;BME280;13247;47.504;7.382;2023-04-08T00:33:11;97589.59;;;7.16;100.00
21817;BME280;13247;47.504;7.382;2023-04-08T00:35:56;97591.75;;;6.83;100.00
21817;BME280;13247;47.504;7.382;2023-04-08T00:38:40;97598.09;;;6.60;100.00
21817;BME280;13247;47.504;7.382;2023-04-08T00:41:25;97603.59;;;6.34;100.00
21817;BME280;13247;47.504;7.382;2023-04-08T00:44:09;97597.53;;;6.32;100.00
21817;BME280;13247;47.504;7.382;2023-04-08T00:46:54;97602.59;;;6.47;100.00
21817;BME280;13247;47.504;7.382;2023-04-08T00:49:39;97602.75;;;6.32;100.00
21817;BME280;13247;47.504;7.382;2023-04-08T00:52:23;97608.00;;;6.29;100.00
21817;BME280;13247;47.504;7.382;2023-04-08T00:55:09;97604.34;;;6.45;100.00
21817;BME280;13247;47.504;7.382;2023-04-08T00:57:54;97604.50;;;6.30;100.00
21817;BME280;13247;47.504;7.382;2023-04-08T01:00:46;97606.03;;;6.52;100.00
21817;BME280;13247;47.504;7.382;2023-04-08T01:03:55;97599.81;;;6.62;100.00
21817;BME280;13247;47.504;7.382;2023-04-08T01:06:48;97603.19;;;6.70;100.00
21817;BME280;13247;47.504;7.382;2023-04-08T01:09:38;97600.56;;;6.73;100.00
21817;BME280;13247;47.504;7.382;2023-04-08T01:12:29;97601.44;;;6.72;100.00
21817;BME280;13247;47.504;7.382;2023-04-08T01:15:15;97599.75;;;6.68;100.00
21817;BME280;13247;47.504;7.382;2023-04-08T01:18:06;97600.69;;;6.63;100.00
21817;BME280;13247;47.504;7.382;2023-04-08T01:20:53;97604.97;;;6.68;100.00
21817;BME280;13247;47.504;7.382;2023-04-08T01:23:49;97606.69;;;6.69;100.00
21817;BME280;13247;47.504;7.382;2023-04-08T01:26:38;97608.66;;;6.49;100.00
21817;BME280;13247;47.504;7.382;2023-04-08T01:29:25;97609.59;;;6.41;100.00
21817;BME280;13247;47.504;7.382;2023-04-08T01:32:12;97607.81;;;6.47;100.00
21817;BME280;13247;47.504;7.382;2023-04-08T01:34:58;97617.69;;;6.16;100.00
21817;BME280;13247;47.504;7.382;2023-04-08T01:37:45;97614.09;;;6.26;100.00
21817;BME280;13247;47.504;7.382;2023-04-08T01:40:30;97604.47;;;6.34;100.00
21817;BME280;13247;47.504;7.382;2023-04-08T01:43:17;97611.47;;;6.31;100.00
21817;BME280;13247;47.504;7.382;2023-04-08T01:46:02;97604.50;;;6.30;100.00
21817;BME280;13247;47.504;7.382;2023-04-08T01:48:49;97605.19;;;6.47;100.00
21817;BME280;13247;47.504;7.382;2023-04-08T01:51:36;97613.75;;;5.66;100.00
21817;BME280;13247;47.504;7.382;2023-04-08T01:54:21;97617.50;;;5.25;100.00
21817;BME280;13247;47.504;7.382;2023-04-08T01:57:07;97622.75;;;5.13;100.00
21817;BME280;13247;47.504;7.382;2023-04-08T01:59:54;97615.59;;;5.47;100.00
21817;BME280;13247;47.504;7.382;2023-04-08T02:02:42;97608.47;;;5.75;100.00
21817;BME280;13247;47.504;7.382;2023-04-08T02:05:27;97615.72;;;5.33;100.00
21817;BME280;13247;47.504;7.382;2023-04-08T02:08:12;97618.53;;;5.00;100.00
21817;BME280;13247;47.504;7.382;2023-04-08T02:10:57;97620.97;;;5.27;100.00
21817;BME280;13247;47.504;7.382;2023-04-08T02:13:41;97614.81;;;5.37;100.00
21817;BME280;13247;47.504;7.382;2023-04-08T02:16:49;97617.41;;;5.37;100.00
21817;BME280;13247;47.504;7.382;2023-04-08T02:19:55;97620.00;;;5.40;100.00
21817;BME280;13247;47.504;7.382;2023-04-08T02:25:34;97630.22;;;5.65;100.00
21817;BME280;13247;47.504;7.382;2023-04-08T02:28:22;97614.59;;;5.68;100.00
21817;BME280;13247;47.504;7.382;2023-04-08T02:31:10;97625.00;;;5.72;100.00
21817;BME280;13247;47.504;7.382;2023-04-08T02:33:59;97624.13;;;5.69;100.00
21817;BME280;13247;47.504;7.382;2023-04-08T02:36:44;97624.00;;;5.90;100.00
21817;BME280;13247;47.504;7.382;2023-04-08T02:39:34;97628.38;;;5.86;100.00
21817;BME280;13247;47.504;7.382;2023-04-08T02:42:19;97626.56;;;5.93;100.00
21817;BME280;13247;47.504;7.382;2023-04-08T02:45:03;97626.53;;;5.97;100.00
21817;BME280;13247;47.504;7.382;2023-04-08T02:47:49;97620.47;;;5.97;100.00
21817;BME280;13247;47.504;7.382;2023-04-08T02:50:33;97622.16;;;5.98;100.00
21817;BME280;13247;47.504;7.382;2023-04-08T02:53:18;97623.84;;;6.05;100.00
21817;BME280;13247;47.504;7.382;2023-04-08T02:56:03;97626.47;;;6.05;100.00
21817;BME280;13247;47.504;7.382;2023-04-08T02:58:48;97627.34;;;6.02;100.00
21817;BME280;13247;47.504;7.382;2023-04-08T03:01:32;97625.53;;;6.10;100.00
21817;BME280;13247;47.504;7.382;2023-04-08T03:04:17;97620.41;;;6.06;100.00
21817;BME280;13247;47.504;7.382;2023-04-08T03:07:01;97618.72;;;5.96;100.00
21817;BME280;13247;47.504;7.382;2023-04-08T03:09:46;97620.63;;;5.73;100.00
21817;BME280;13247;47.504;7.382;2023-04-08T03:12:31;97627.78;;;5.46;100.00
21817;BME280;13247;47.504;7.382;2023-04-08T03:15:16;97622.47;;;5.58;100.00
21817;BME280;13247;47.504;7.382;2023-04-08T03:18:01;97618.84;;;5.78;100.00
21817;BME280;13247;47.504;7.382;2023-04-08T03:20:45;97618.84;;;5.78;100.00
21817;BME280;13247;47.504;7.382;2023-04-08T03:23:30;97618.84;;;5.81;100.00
21817;BME280;13247;47.504;7.382;2023-04-08T03:26:15;97619.66;;;5.90;100.00
21817;BME280;13247;47.504;7.382;2023-04-08T03:28:59;97617.88;;;5.95;100.00
21817;BME280;13247;47.504;7.382;2023-04-08T03:31:44;97622.22;;;5.95;100.00
21817;BME280;13247;47.504;7.382;2023-04-08T03:34:29;97634.22;;;6.11;100.00
21817;BME280;13247;47.504;7.382;2023-04-08T03:37:13;97621.13;;;6.17;100.00
21817;BME280;13247;47.504;7.382;2023-04-08T03:39:58;97626.41;;;6.09;100.00
21817;BME280;13247;47.504;7.382;2023-04-08T03:42:43;97623.91;;;5.99;100.00
21817;BME280;13247;47.504;7.382;2023-04-08T03:45:28;97640.78;;;5.46;100.00
21817;BME280;13247;47.504;7.382;2023-04-08T03:48:13;97635.41;;;5.68;100.00
21817;BME280;13247;47.504;7.382;2023-04-08T03:50:57;97636.25;;;5.68;100.00
21817;BME280;13247;47.504;7.382;2023-04-08T03:53:42;97619.69;;;5.83;100.00
21817;BME280;13247;47.504;7.382;2023-04-08T03:56:26;97620.59;;;5.85;100.00
21817;BME280;13247;47.504;7.382;2023-04-08T03:59:11;97626.81;;;5.56;100.00
21817;BME280;13247;47.504;7.382;2023-04-08T04:01:55;97632.03;;;5.56;100.00
21817;BME280;13247;47.504;7.382;2023-04-08T04:04:40;97630.13;;;5.78;100.00
21817;BME280;13247;47.504;7.382;2023-04-08T04:07:25;97625.72;;;5.91;100.00
21817;BME280;13247;47.504;7.382;2023-04-08T04:10:09;97628.16;;;6.09;100.00
21817;BME280;13247;47.504;7.382;2023-04-08T04:12:55;97629.00;;;6.14;100.00
21817;BME280;13247;47.504;7.382;2023-04-08T04:15:40;97629.91;;;6.07;100.00
21817;BME280;13247;47.504;7.382;2023-04-08T04:18:25;97629.84;;;6.14;100.00
21817;BME280;13247;47.504;7.382;2023-04-08T04:21:09;97636.09;;;5.97;100.00
21817;BME280;13247;47.504;7.382;2023-04-08T04:23:54;97632.56;;;6.04;100.00
21817;BME280;13247;47.504;7.382;2023-04-08T04:26:42;97639.50;;;6.00;100.00
21817;BME280;13247;47.504;7.382;2023-04-08T04:29:27;97644.78;;;5.93;100.00
21817;BME280;13247;47.504;7.382;2023-04-08T04:32:11;97642.22;;;5.91;100.00
21817;BME280;13247;47.504;7.382;2023-04-08T04:34:56;97637.78;;;6.01;100.00
21817;BME280;13247;47.504;7.382;2023-04-08T04:37:41;97642.06;;;6.05;100.00
21817;BME280;13247;47.504;7.382;2023-04-08T04:40:26;97650.81;;;5.98;100.00
21817;BME280;13247;47.504;7.382;2023-04-08T04:43:11;97642.94;;;6.07;100.00
21817;BME280;13247;47.504;7.382;2023-04-08T05:09:27;97668.41;;;5.58;100.00
21817;BME280;13247;47.504;7.382;2023-04-08T05:12:12;97667.47;;;5.71;100.00
21817;BME280;13247;47.504;7.382;2023-04-08T05:15:00;97665.72;;;5.76;100.00
21817;BME280;13247;47.504;7.382;2023-04-08T05:17:45;97678.06;;;5.42;100.00
21817;BME280;13247;47.504;7.382;2023-04-08T05:20:30;97685.13;;;5.16;100.00
21817;BME280;13247;47.504;7.382;2023-04-08T05:23:15;97689.44;;;5.23;100.00
21817;BME280;13247;47.504;7.382;2023-04-08T05:26:00;97695.44;;;5.33;100.00
21817;BME280;13247;47.504;7.382;2023-04-08T05:28:44;97691.00;;;5.51;100.00
21817;BME280;13247;47.504;7.382;2023-04-08T05:31:29;97683.16;;;5.61;100.00
21817;BME280;13247;47.504;7.382;2023-04-08T05:34:14;97685.84;;;5.41;100.00
21817;BME280;13247;47.504;7.382;2023-04-08T05:37:02;97693.69;;;5.36;100.00
21817;BME280;13247;47.504;7.382;2023-04-08T05:39:47;97691.94;;;5.44;100.00
21817;BME280;13247;47.504;7.382;2023-04-08T05:42:31;97692.00;;;5.34;100.00
21817;BME280;13247;47.504;7.382;2023-04-08T05:45:16;97695.34;;;5.49;100.00
21817;BME280;13247;47.504;7.382;2023-04-08T05:48:00;97693.59;;;5.54;100.00
21817;BME280;13247;47.504;7.382;2023-04-08T05:50:45;97690.06;;;5.63;100.00
21817;BME280;13247;47.504;7.382;2023-04-08T05:53:32;97704.09;;;5.39;100.00
21817;BME280;13247;47.504;7.382;2023-04-08T05:56:16;97710.22;;;5.28;100.00
21817;BME280;13247;47.504;7.382;2023-04-08T05:59:01;97709.25;;;5.48;100.00
21817;BME280;13247;47.504;7.382;2023-04-08T06:01:45;97722.16;;;5.61;100.00
21817;BME280;13247;47.504;7.382;2023-04-08T06:04:30;97709.06;;;5.76;100.00
21817;BME280;13247;47.504;7.382;2023-04-08T06:07:14;97711.59;;;5.89;100.00
21817;BME280;13247;47.504;7.382;2023-04-08T06:09:59;97726.25;;;6.04;100.00
21817;BME280;13247;47.504;7.382;2023-04-08T06:12:44;97714.06;;;6.09;100.00
21817;BME280;13247;47.504;7.382;2023-04-08T06:15:28;97720.16;;;6.08;100.00
21817;BME280;13247;47.504;7.382;2023-04-08T06:18:15;97717.50;;;6.11;100.00
21817;BME280;13247;47.504;7.382;2023-04-08T06:21:00;97719.22;;;6.15;100.00
21817;BME280;13247;47.504;7.382;2023-04-08T06:23:44;97723.50;;;6.22;100.00
21817;BME280;13247;47.504;7.382;2023-04-08T06:26:29;97724.38;;;6.21;100.00
21817;BME280;13247;47.504;7.382;2023-04-08T06:29:14;97712.13;;;6.32;100.00
21817;BME280;13247;47.504;7.382;2023-04-08T06:32:00;97718.84;;;6.57;100.00
21817;BME280;13247;47.504;7.382;2023-04-08T06:34:44;97713.63;;;6.60;100.00
21817;BME280;13247;47.504;7.382;2023-04-08T06:37:29;97724.06;;;6.57;100.00
21817;BME280;13247;47.504;7.382;2023-04-08T06:40:14;97723.09;;;6.67;100.00
21817;BME280;13247;47.504;7.382;2023-04-08T06:42:58;97720.38;;;6.79;100.00
21817;BME280;13247;47.504;7.382;2023-04-08T06:45:42;97713.19;;;6.99;100.00
21817;BME280;13247;47.504;7.382;2023-04-08T06:48:27;97725.16;;;7.17;100.00
21817;BME280;13247;47.504;7.382;2023-04-08T06:51:14;97723.50;;;7.11;100.00
21817;BME280;13247;47.504;7.382;2023-04-08T06:53:59;97719.91;;;7.20;100.00
21817;BME280;13247;47.504;7.382;2023-04-08T06:56:44;97726.03;;;7.18;100.00
21817;BME280;13247;47.504;7.382;2023-04-08T06:59:29;97730.97;;;7.37;100.00
21817;BME280;13247;47.504;7.382;2023-04-08T07:02:13;97727.69;;;7.23;100.00
21817;BME280;13247;47.504;7.382;2023-04-08T07:04:59;97728.56;;;7.24;100.00
21817;BME280;13247;47.504;7.382;2023-04-08T07:07:44;97727.38;;;7.49;100.00
21817;BME280;13247;47.504;7.382;2023-04-08T07:10:28;97726.72;;;7.32;100.00
21817;BME280;13247;47.504;7.382;2023-04-08T07:13:14;97729.22;;;7.41;100.00
21817;BME280;13247;47.504;7.382;2023-04-08T07:15:59;97732.63;;;7.47;100.00
21817;BME280;13247;47.504;7.382;2023-04-08T07:18:43;97728.13;;;7.57;100.00
21817;BME280;13247;47.504;7.382;2023-04-08T07:21:29;97728.88;;;7.66;100.00
21817;BME280;13247;47.504;7.382;2023-04-08T07:24:15;97729.41;;;7.89;100.00
21817;BME280;13247;47.504;7.382;2023-04-08T07:26:59;97728.31;;;8.03;100.00
21817;BME280;13247;47.504;7.382;2023-04-08T07:29:44;97731.69;;;8.12;100.00
21817;BME280;13247;47.504;7.382;2023-04-08T07:32:29;97729.94;;;8.11;100.00
21817;BME280;13247;47.504;7.382;2023-04-08T07:35:14;97734.84;;;8.34;100.00
21817;BME280;13247;47.504;7.382;2023-04-08T07:38:03;97724.25;;;8.41;100.00
21817;BME280;13247;47.504;7.382;2023-04-08T07:40:48;97724.69;;;8.67;100.00
21817;BME280;13247;47.504;7.382;2023-04-08T07:43:32;97725.81;;;8.53;100.00
21817;BME280;13247;47.504;7.382;2023-04-08T07:46:17;97729.66;;;8.81;100.00
21817;BME280;13247;47.504;7.382;2023-04-08T07:49:03;97728.50;;;8.97;100.00
21817;BME280;13247;47.504;7.382;2023-04-08T07:51:48;97726.97;;;8.86;100.00
21817;BME280;13247;47.504;7.382;2023-04-08T07:54:32;97732.56;;;8.64;100.00
21817;BME280;13247;47.504;7.382;2023-04-08T07:57:20;97734.78;;;8.89;100.00
21817;BME280;13247;47.504;7.382;2023-04-08T08:00:05;97737.38;;;8.89;100.00
21817;BME280;13247;47.504;7.382;2023-04-08T08:02:50;97734.44;;;9.05;100.00
21817;BME280;13247;47.504;7.382;2023-04-08T08:05:35;97736.34;;;8.96;100.00
21817;BME280;13247;47.504;7.382;2023-04-08T08:08:21;97739.09;;;9.34;100.00
21817;BME280;13247;47.504;7.382;2023-04-08T08:11:05;97726.66;;;9.45;100.00
21817;BME280;13247;47.504;7.382;2023-04-08T08:13:50;97731.72;;;9.54;100.00
21817;BME280;13247;47.504;7.382;2023-04-08T08:16:35;97735.16;;;9.13;100.00
21817;BME280;13247;47.504;7.382;2023-04-08T08:19:20;97739.34;;;9.22;100.00
21817;BME280;13247;47.504;7.382;2023-04-08T08:22:05;97742.31;;;9.48;100.00
21817;BME280;13247;47.504;7.382;2023-04-08T08:24:53;97743.72;;;9.64;100.00
21817;BME280;13247;47.504;7.382;2023-04-08T08:27:38;97733.47;;;9.93;100.00
21817;BME280;13247;47.504;7.382;2023-04-08T08:30:25;97744.41;;;9.72;100.00
21817;BME280;13247;47.504;7.382;2023-04-08T08:33:10;97739.44;;;9.60;100.00
21817;BME280;13247;47.504;7.382;2023-04-08T08:35:55;97742.47;;;9.80;100.00
21817;BME280;13247;47.504;7.382;2023-04-08T08:38:41;97742.28;;;9.89;100.00
21817;BME280;13247;47.504;7.382;2023-04-08T08:41:25;97745.47;;;9.64;100.00
21817;BME280;13247;47.504;7.382;2023-04-08T08:44:10;97751.13;;;9.85;100.00
21817;BME280;13247;47.504;7.382;2023-04-08T08:46:56;97744.00;;;9.92;100.00
21817;BME280;13247;47.504;7.382;2023-04-08T08:49:40;97756.41;;;9.82;100.00
21817;BME280;13247;47.504;7.382;2023-04-08T08:52:25;97750.47;;;9.74;100.00
21817;BME280;13247;47.504;7.382;2023-04-08T08:55:10;97755.09;;;10.03;100.00
21817;BME280;13247;47.504;7.382;2023-04-08T08:57:55;97757.78;;;10.00;100.00
21817;BME280;13247;47.504;7.382;2023-04-08T09:00:41;97760.44;;;9.97;100.00
21817;BME280;13247;47.504;7.382;2023-04-08T09:03:28;97765.53;;;10.04;100.00
21817;BME280;13247;47.504;7.382;2023-04-08T09:06:17;97764.88;;;10.33;100.00
21817;BME280;13247;47.504;7.382;2023-04-08T09:09:02;97770.47;;;10.19;100.00
21817;BME280;13247;47.504;7.382;2023-04-08T09:11:49;97771.44;;;9.74;100.00
21817;BME280;13247;47.504;7.382;2023-04-08T09:14:46;97773.75;;;9.88;100.00
21817;BME280;13247;47.504;7.382;2023-04-08T09:17:34;97764.06;;;10.33;100.00
21817;BME280;13247;47.504;7.382;2023-04-08T09:20:19;97766.28;;;10.48;100.00
21817;BME280;13247;47.504;7.382;2023-04-08T09:23:04;97766.16;;;10.54;100.00
21817;BME280;13247;47.504;7.382;2023-04-08T09:25:48;97764.81;;;10.71;100.00
21817;BME280;13247;47.504;7.382;2023-04-08T09:28:34;97769.59;;;10.56;100.00
21817;BME280;13247;47.504;7.382;2023-04-08T09:31:26;97766.06;;;10.57;100.00
21817;BME280;13247;47.504;7.382;2023-04-08T09:34:15;97763.06;;;10.37;100.00
21817;BME280;13247;47.504;7.382;2023-04-08T09:37:00;97758.88;;;10.30;100.00
21817;BME280;13247;47.504;7.382;2023-04-08T09:39:46;97761.84;;;10.14;100.00
21817;BME280;13247;47.504;7.382;2023-04-08T09:42:30;97769.66;;;10.53;100.00
21817;BME280;13247;47.504;7.382;2023-04-08T09:45:17;97760.50;;;10.70;100.00
21817;BME280;13247;47.504;7.382;2023-04-08T09:48:23;97756.06;;;10.72;100.00
21817;BME280;13247;47.504;7.382;2023-04-08T09:51:15;97764.06;;;11.01;100.00
21817;BME280;13247;47.504;7.382;2023-04-08T09:54:02;97760.50;;;11.04;100.00
21817;BME280;13247;47.504;7.382;2023-04-08T09:57:04;97759.69;;;11.00;100.00
21817;BME280;13247;47.504;7.382;2023-04-08T09:59:55;97766.75;;;11.31;100.00
21817;BME280;13247;47.504;7.382;2023-04-08T10:05:53;97762.72;;;11.19;100.00
21817;BME280;13247;47.504;7.382;2023-04-08T10:08:39;97763.13;;;11.02;100.00
21817;BME280;13247;47.504;7.382;2023-04-08T10:11:24;97766.56;;;11.04;100.00
21817;BME280;13247;47.504;7.382;2023-04-08T10:14:09;97777.34;;;10.95;100.00
21817;BME280;13247;47.504;7.382;2023-04-08T10:17:23;97767.78;;;11.25;100.00
21817;BME280;13247;47.504;7.382;2023-04-08T10:20:32;97768.56;;;11.29;100.00
21817;BME280;13247;47.504;7.382;2023-04-08T10:23:17;97773.66;;;11.65;100.00
21817;BME280;13247;47.504;7.382;2023-04-08T10:26:02;97771.94;;;11.32;100.00
21817;BME280;13247;47.504;7.382;2023-04-08T10:32:27;97766.41;;;11.43;100.00
21817;BME280;13247;47.504;7.382;2023-04-08T10:35:13;97762.00;;;11.75;100.00
21817;BME280;13247;47.504;7.382;2023-04-08T10:37:59;97757.88;;;11.35;100.00
21817;BME280;13247;47.504;7.382;2023-04-08T10:40:44;97759.31;;;11.46;100.00
21817;BME280;13247;47.504;7.382;2023-04-08T10:43:35;97759.63;;;11.36;100.00
21817;BME280;13247;47.504;7.382;2023-04-08T10:46:20;97757.91;;;11.64;100.00
21817;BME280;13247;47.504;7.382;2023-04-08T10:49:05;97762.78;;;11.47;100.00
21817;BME280;13247;47.504;7.382;2023-04-08T10:51:50;97755.72;;;11.18;100.00
21817;BME280;13247;47.504;7.382;2023-04-08T10:54:36;97756.50;;;11.22;100.00
21817;BME280;13247;47.504;7.382;2023-04-08T10:57:24;97751.88;;;11.93;100.00
21817;BME280;13247;47.504;7.382;2023-04-08T11:00:10;97752.50;;;11.71;100.00
21817;BME280;13247;47.504;7.382;2023-04-08T11:02:58;97754.19;;;11.74;100.00
21817;BME280;13247;47.504;7.382;2023-04-08T11:05:43;97748.44;;;11.91;100.00
21817;BME280;13247;47.504;7.382;2023-04-08T11:08:29;97757.81;;;11.68;100.00
21817;BME280;13247;47.504;7.382;2023-04-08T11:11:14;97755.25;;;11.67;100.00
21817;BME280;13247;47.504;7.382;2023-04-08T11:13:59;97756.28;;;11.61;100.00
21817;BME280;13247;47.504;7.382;2023-04-08T11:16:45;97756.56;;;11.81;100.00
21817;BME280;13247;47.504;7.382;2023-04-08T11:19:29;97756.34;;;11.58;100.00
21817;BME280;13247;47.504;7.382;2023-04-08T11:22:14;97756.91;;;11.39;100.00
21817;BME280;13247;47.504;7.382;2023-04-08T11:25:00;97755.69;;;11.82;100.00
21817;BME280;13247;47.504;7.382;2023-04-08T11:27:45;97756.50;;;11.85;100.00
21817;BME280;13247;47.504;7.382;2023-04-08T11:30:31;97751.13;;;11.88;100.00
21817;BME280;13247;47.504;7.382;2023-04-08T11:33:16;97743.19;;;12.18;100.00
21817;BME280;13247;47.504;7.382;2023-04-08T11:36:02;97748.72;;;12.09;100.00
21817;BME280;13247;47.504;7.382;2023-04-08T11:38:53;97741.16;;;11.99;100.00
21817;BME280;13247;47.504;7.382;2023-04-08T11:41:39;97729.78;;;12.26;100.00
21817;BME280;13247;47.504;7.382;2023-04-08T11:44:33;97739.78;;;12.15;100.00
21817;BME280;13247;47.504;7.382;2023-04-08T11:47:17;97733.50;;;12.19;100.00
21817;BME280;13247;47.504;7.382;2023-04-08T11:50:02;97726.25;;;12.27;100.00
21817;BME280;13247;47.504;7.382;2023-04-08T11:52:48;97727.47;;;11.88;100.00
21817;BME280;13247;47.504;7.382;2023-04-08T11:55:34;97722.50;;;12.08;100.00
21817;BME280;13247;47.504;7.382;2023-04-08T11:58:19;97723.25;;;12.11;100.00
21817;BME280;13247;47.504;7.382;2023-04-08T12:01:03;97727.34;;;12.20;98.36
21817;BME280;13247;47.504;7.382;2023-04-08T12:04:00;97724.28;;;12.33;98.85
21817;BME280;13247;47.504;7.382;2023-04-08T12:06:45;97724.97;;;12.66;94.83
21817;BME280;13247;47.504;7.382;2023-04-08T12:09:30;97719.03;;;12.86;93.40
21817;BME280;13247;47.504;7.382;2023-04-08T12:12:15;97721.53;;;12.89;96.27
21817;BME280;13247;47.504;7.382;2023-04-08T12:14:59;97723.13;;;12.94;98.64
21817;BME280;13247;47.504;7.382;2023-04-08T12:17:44;97722.31;;;12.40;100.00
21817;BME280;13247;47.504;7.382;2023-04-08T12:20:29;97712.66;;;12.40;100.00
21817;BME280;13247;47.504;7.382;2023-04-08T12:23:13;97715.63;;;12.30;100.00
21817;BME280;13247;47.504;7.382;2023-04-08T12:25:58;97715.03;;;12.22;100.00
21817;BME280;13247;47.504;7.382;2023-04-08T12:28:42;97723.84;;;11.92;100.00
21817;BME280;13247;47.504;7.382;2023-04-08T12:31:27;97720.69;;;12.08;100.00
21817;BME280;13247;47.504;7.382;2023-04-08T12:34:11;97731.88;;;11.87;100.00
21817;BME280;13247;47.504;7.382;2023-04-08T12:36:57;97727.00;;;12.03;100.00
21817;BME280;13247;47.504;7.382;2023-04-08T12:39:42;97722.03;;;11.94;100.00
21817;BME280;13247;47.504;7.382;2023-04-08T12:42:26;97726.97;;;12.04;100.00
21817;BME280;13247;47.504;7.382;2023-04-08T12:45:11;97723.31;;;12.10;100.00
21817;BME280;13247;47.504;7.382;2023-04-08T12:47:56;97722.91;;;12.22;100.00
21817;BME280;13247;47.504;7.382;2023-04-08T12:50:40;97726.13;;;12.04;100.00
21817;BME280;13247;47.504;7.382;2023-04-08T12:53:25;97725.53;;;11.94;100.00
21817;BME280;13247;47.504;7.382;2023-04-08T12:56:09;97720.69;;;11.80;100.00
21817;BME280;13247;47.504;7.382;2023-04-08T12:58:54;97718.34;;;11.71;100.00
21817;BME280;13247;47.504;7.382;2023-04-08T13:01:42;97721.34;;;12.16;100.00
21817;BME280;13247;47.504;7.382;2023-04-08T13:04:26;97724.72;;;12.20;100.00
21817;BME280;13247;47.504;7.382;2023-04-08T13:07:11;97714.22;;;12.20;100.00
21817;BME280;13247;47.504;7.382;2023-04-08T13:09:55;97730.44;;;11.77;100.00
21817;BME280;13247;47.504;7.382;2023-04-08T13:12:40;97727.59;;;11.85;100.00
21817;BME280;13247;47.504;7.382;2023-04-08T13:15:25;97720.53;;;11.87;100.00
21817;BME280;13247;47.504;7.382;2023-04-08T13:18:09;97720.53;;;11.87;100.00
21817;BME280;13247;47.504;7.382;2023-04-08T13:20:54;97723.63;;;11.99;100.00
21817;BME280;13247;47.504;7.382;2023-04-08T13:23:39;97709.84;;;12.19;100.00
21817;BME280;13247;47.504;7.382;2023-04-08T13:26:24;97718.25;;;12.02;100.00
21817;BME280;13247;47.504;7.382;2023-04-08T13:29:09;97706.84;;;12.03;100.00
21817;BME280;13247;47.504;7.382;2023-04-08T13:31:54;97715.06;;;11.93;100.00
21817;BME280;13247;47.504;7.382;2023-04-08T13:34:39;97704.31;;;12.28;100.00
21817;BME280;13247;47.504;7.382;2023-04-08T13:37:26;97711.00;;;12.64;94.64
21817;BME280;13247;47.504;7.382;2023-04-08T13:40:10;97705.28;;;12.78;89.74
21817;BME280;13247;47.504;7.382;2023-04-08T13:42:55;97700.09;;;12.99;92.53
21817;BME280;13247;47.504;7.382;2023-04-08T13:45:40;97701.91;;;13.23;92.96
21817;BME280;13247;47.504;7.382;2023-04-08T13:48:25;97707.66;;;13.34;95.25
21817;BME280;13247;47.504;7.382;2023-04-08T13:51:09;97707.91;;;13.02;91.98
21817;BME280;13247;47.504;7.382;2023-04-08T13:53:54;97714.22;;;12.72;96.06
21817;BME280;13247;47.504;7.382;2023-04-08T13:56:39;97701.59;;;12.31;92.07
21817;BME280;13247;47.504;7.382;2023-04-08T13:59:24;97705.94;;;12.58;89.05
21817;BME280;13247;47.504;7.382;2023-04-08T14:02:09;97703.81;;;12.43;85.76
21817;BME280;13247;47.504;7.382;2023-04-08T14:04:53;97700.78;;;12.29;89.14
21817;BME280;13247;47.504;7.382;2023-04-08T14:07:38;97698.84;;;12.34;87.75
21817;BME280;13247;47.504;7.382;2023-04-08T14:10:22;97709.88;;;12.45;89.30
21817;BME280;13247;47.504;7.382;2023-04-08T14:13:07;97711.09;;;12.35;89.54
21817;BME280;13247;47.504;7.382;2023-04-08T14:15:51;97710.25;;;12.60;91.55
21817;BME280;13247;47.504;7.382;2023-04-08T14:18:38;97701.44;;;12.61;90.75
21817;BME280;13247;47.504;7.382;2023-04-08T14:21:23;97709.00;;;12.44;85.25
21817;BME280;13247;47.504;7.382;2023-04-08T14:24:09;97697.53;;;12.73;81.22
21817;BME280;13247;47.504;7.382;2023-04-08T14:26:53;97704.19;;;12.83;78.33
21817;BME280;13247;47.504;7.382;2023-04-08T14:29:38;97701.72;;;13.03;77.40
21817;BME280;13247;47.504;7.382;2023-04-08T14:32:24;97699.91;;;13.07;75.46
21817;BME280;13247;47.504;7.382;2023-04-08T14:35:09;97699.94;;;13.04;77.92
21817;BME280;13247;47.504;7.382;2023-04-08T14:37:53;97694.81;;;13.25;71.94
21817;BME280;13247;47.504;7.382;2023-04-08T14:40:38;97692.94;;;13.29;76.83
21817;BME280;13247;47.504;7.382;2023-04-08T14:43:23;97693.63;;;13.09;74.21
21817;BME280;13247;47.504;7.382;2023-04-08T14:46:07;97701.28;;;13.17;73.03
21817;BME280;13247;47.504;7.382;2023-04-08T14:48:52;97701.59;;;13.32;68.02
21817;BME280;13247;47.504;7.382;2023-04-08T14:51:36;97694.50;;;13.81;69.68
21817;BME280;13247;47.504;7.382;2023-04-08T14:54:21;97696.53;;;13.73;68.14
21817;BME280;13247;47.504;7.382;2023-04-08T14:57:05;97694.84;;;14.38;71.13
21817;BME280;13247;47.504;7.382;2023-04-08T14:59:50;97697.34;;;13.98;72.98
21817;BME280;13247;47.504;7.382;2023-04-08T15:02:36;97696.78;;;13.67;79.82
21817;BME280;13247;47.504;7.382;2023-04-08T15:05:20;97697.00;;;13.84;78.94
21817;BME280;13247;47.504;7.382;2023-04-08T15:08:05;97699.72;;;14.04;83.08